ESOK 240920Z 24005KT CAVOK 02/M06 Q1006